Portada
METAR-TAF:

METAR-TAF

Aeroports :

Gove Peninsula, Austràlia

latitud: 12-16-12S, longitud: 136-49-06E, altitud: 62 m

Observació

L'informe es va fer fa 37 minuts, a les 11:30 UTC
Vent 3 kt del Sud/Sud-Est
Temperatura 21°C
Humitat 78%
Pressió 1016 hPa
Visibilitat 10 km o més

METAR: YPGV 251130Z AUTO 15003KT 9999 // NCD 21/17 Q1016 RF00.0/000.0

Hora: 21:37 (12:07 UTC)

Pronòstic

L'informe es va fer fa 5 hores i 56 minuts, a les 06:11 UTC
Pronòstic vàlid del 25 a les 08 UTC al 25 a les 20 UTC
Vent 12 kt del Sud-Est
Visibilitat 10 km o més
Núvols disperses a una alçada de 3000 ft

TAF: YPGV 250611Z 2508/2520 13012KT 9999 SCT030

Observacions i pronòstics meteorològics de més de 4000 aeroports (METAR i TAF).

Les estacions disponibles són els punts grocs i vermells al mapa.

Posi el ratolí al punt desitjat per veure el nom de l'estació.

Feu clic per veure les observacions i els pronòstics meteorològics.

Per canviar el mapa: feu clic els botons verds amb una creu de color negre per apropar; al botó verd amb un guió per allunyar la imatge; o en les fletxes verdes per a mapes adjacents.


METAR-TAF: